sensor_id;sensor_type;location;lat;lon;timestamp;P1;durP1;ratioP1;P2;durP2;ratioP2
31848;SDS011;18414;59.352;18.152;2023-02-01T00:01:18;4.67;;;2.20;;
31848;SDS011;18414;59.352;18.152;2023-02-01T00:03:43;5.83;;;2.07;;
31848;SDS011;18414;59.352;18.152;2023-02-01T00:06:08;5.83;;;2.13;;
31848;SDS011;18414;59.352;18.152;2023-02-01T00:08:34;4.73;;;1.90;;
31848;SDS011;18414;59.352;18.152;2023-02-01T00:11:00;9.50;;;1.97;;
31848;SDS011;18414;59.352;18.152;2023-02-01T00:13:28;5.43;;;2.10;;
31848;SDS011;18414;59.352;18.152;2023-02-01T00:15:54;4.97;;;2.03;;
31848;SDS011;18414;59.352;18.152;2023-02-01T00:18:20;5.97;;;1.80;;
31848;SDS011;18414;59.352;18.152;2023-02-01T00:20:45;5.87;;;2.20;;
31848;SDS011;18414;59.352;18.152;2023-02-01T00:23:11;3.77;;;1.90;;
31848;SDS011;18414;59.352;18.152;2023-02-01T00:25:37;4.20;;;2.13;;
31848;SDS011;18414;59.352;18.152;2023-02-01T00:28:02;6.57;;;2.20;;
31848;SDS011;18414;59.352;18.152;2023-02-01T00:30:27;3.63;;;1.90;;
31848;SDS011;18414;59.352;18.152;2023-02-01T00:32:53;4.37;;;2.37;;
31848;SDS011;18414;59.352;18.152;2023-02-01T00:35:18;6.97;;;2.10;;
31848;SDS011;18414;59.352;18.152;2023-02-01T00:37:43;5.30;;;2.13;;
31848;SDS011;18414;59.352;18.152;2023-02-01T00:40:09;8.77;;;2.30;;
31848;SDS011;18414;59.352;18.152;2023-02-01T00:42:34;7.30;;;2.40;;
31848;SDS011;18414;59.352;18.152;2023-02-01T00:45:00;5.00;;;1.70;;
31848;SDS011;18414;59.352;18.152;2023-02-01T00:47:25;6.83;;;2.70;;
31848;SDS011;18414;59.352;18.152;2023-02-01T00:49:51;6.10;;;2.23;;
31848;SDS011;18414;59.352;18.152;2023-02-01T00:52:16;7.90;;;2.27;;
31848;SDS011;18414;59.352;18.152;2023-02-01T00:54:42;4.53;;;2.63;;
31848;SDS011;18414;59.352;18.152;2023-02-01T00:57:07;7.20;;;2.40;;
31848;SDS011;18414;59.352;18.152;2023-02-01T00:59:32;5.80;;;2.30;;
31848;SDS011;18414;59.352;18.152;2023-02-01T01:01:58;4.97;;;2.47;;
31848;SDS011;18414;59.352;18.152;2023-02-01T01:04:23;6.77;;;2.40;;
31848;SDS011;18414;59.352;18.152;2023-02-01T01:06:48;5.80;;;2.67;;
31848;SDS011;18414;59.352;18.152;2023-02-01T01:09:14;9.87;;;2.57;;
31848;SDS011;18414;59.352;18.152;2023-02-01T01:11:39;9.17;;;3.00;;
31848;SDS011;18414;59.352;18.152;2023-02-01T01:14:05;5.33;;;2.50;;
31848;SDS011;18414;59.352;18.152;2023-02-01T01:16:31;10.30;;;2.47;;
31848;SDS011;18414;59.352;18.152;2023-02-01T01:18:58;6.07;;;2.67;;
31848;SDS011;18414;59.352;18.152;2023-02-01T01:21:23;5.47;;;2.40;;
31848;SDS011;18414;59.352;18.152;2023-02-01T01:23:49;8.63;;;2.90;;
31848;SDS011;18414;59.352;18.152;2023-02-01T01:26:16;7.33;;;2.50;;
31848;SDS011;18414;59.352;18.152;2023-02-01T01:28:43;4.23;;;2.17;;
31848;SDS011;18414;59.352;18.152;2023-02-01T01:31:09;9.63;;;2.10;;
31848;SDS011;18414;59.352;18.152;2023-02-01T01:33:35;4.93;;;2.20;;
31848;SDS011;18414;59.352;18.152;2023-02-01T01:36:01;10.50;;;2.50;;
31848;SDS011;18414;59.352;18.152;2023-02-01T01:38:26;5.90;;;2.20;;
31848;SDS011;18414;59.352;18.152;2023-02-01T01:40:52;10.70;;;2.63;;
31848;SDS011;18414;59.352;18.152;2023-02-01T01:43:18;7.43;;;2.33;;
31848;SDS011;18414;59.352;18.152;2023-02-01T01:45:47;4.90;;;1.90;;
31848;SDS011;18414;59.352;18.152;2023-02-01T01:50:54;5.20;;;2.10;;
31848;SDS011;18414;59.352;18.152;2023-02-01T01:53:24;5.17;;;2.00;;
31848;SDS011;18414;59.352;18.152;2023-02-01T01:55:52;4.33;;;1.90;;
31848;SDS011;18414;59.352;18.152;2023-02-01T01:58:19;13.33;;;2.40;;
31848;SDS011;18414;59.352;18.152;2023-02-01T02:00:47;7.87;;;2.27;;
31848;SDS011;18414;59.352;18.152;2023-02-01T02:05:58;8.13;;;2.00;;
31848;SDS011;18414;59.352;18.152;2023-02-01T02:08:24;3.00;;;1.73;;
31848;SDS011;18414;59.352;18.152;2023-02-01T02:10:50;2.10;;;1.53;;
31848;SDS011;18414;59.352;18.152;2023-02-01T02:13:41;2.87;;;1.57;;
31848;SDS011;18414;59.352;18.152;2023-02-01T02:24:08;3.50;;;1.40;;
31848;SDS011;18414;59.352;18.152;2023-02-01T02:32:11;5.13;;;1.77;;
31848;SDS011;18414;59.352;18.152;2023-02-01T02:34:49;3.40;;;1.30;;
31848;SDS011;18414;59.352;18.152;2023-02-01T02:37:36;2.33;;;1.30;;
31848;SDS011;18414;59.352;18.152;2023-02-01T02:45:25;4.00;;;1.27;;
31848;SDS011;18414;59.352;18.152;2023-02-01T02:48:25;4.87;;;1.50;;
31848;SDS011;18414;59.352;18.152;2023-02-01T02:51:11;4.37;;;1.43;;
31848;SDS011;18414;59.352;18.152;2023-02-01T02:54:01;2.73;;;1.50;;
31848;SDS011;18414;59.352;18.152;2023-02-01T02:56:48;6.23;;;1.77;;
31848;SDS011;18414;59.352;18.152;2023-02-01T02:59:33;5.03;;;1.10;;
31848;SDS011;18414;59.352;18.152;2023-02-01T03:02:18;2.57;;;1.63;;
31848;SDS011;18414;59.352;18.152;2023-02-01T03:05:03;3.70;;;1.47;;
31848;SDS011;18414;59.352;18.152;2023-02-01T03:10:24;4.10;;;1.87;;
31848;SDS011;18414;59.352;18.152;2023-02-01T03:12:54;1.93;;;1.47;;
31848;SDS011;18414;59.352;18.152;2023-02-01T03:15:20;4.50;;;2.13;;
31848;SDS011;18414;59.352;18.152;2023-02-01T03:17:48;3.80;;;1.60;;
31848;SDS011;18414;59.352;18.152;2023-02-01T03:20:15;4.07;;;1.83;;
31848;SDS011;18414;59.352;18.152;2023-02-01T03:22:44;3.50;;;1.60;;
31848;SDS011;18414;59.352;18.152;2023-02-01T03:25:16;5.17;;;1.50;;
31848;SDS011;18414;59.352;18.152;2023-02-01T03:27:49;5.83;;;1.80;;
31848;SDS011;18414;59.352;18.152;2023-02-01T03:30:28;3.73;;;1.47;;
31848;SDS011;18414;59.352;18.152;2023-02-01T03:32:56;5.03;;;2.00;;
31848;SDS011;18414;59.352;18.152;2023-02-01T03:35:32;6.03;;;1.70;;
31848;SDS011;18414;59.352;18.152;2023-02-01T03:38:16;4.83;;;1.80;;
31848;SDS011;18414;59.352;18.152;2023-02-01T03:40:44;3.87;;;1.60;;
31848;SDS011;18414;59.352;18.152;2023-02-01T03:43:14;3.53;;;1.53;;
31848;SDS011;18414;59.352;18.152;2023-02-01T03:45:43;3.70;;;1.40;;
31848;SDS011;18414;59.352;18.152;2023-02-01T03:48:11;4.77;;;1.90;;
31848;SDS011;18414;59.352;18.152;2023-02-01T03:50:38;4.73;;;1.83;;
31848;SDS011;18414;59.352;18.152;2023-02-01T03:53:06;5.53;;;1.80;;
31848;SDS011;18414;59.352;18.152;2023-02-01T03:55:33;4.10;;;1.73;;
31848;SDS011;18414;59.352;18.152;2023-02-01T04:00:33;6.10;;;1.80;;
31848;SDS011;18414;59.352;18.152;2023-02-01T04:02:58;7.13;;;1.77;;
31848;SDS011;18414;59.352;18.152;2023-02-01T04:05:24;2.90;;;1.40;;
31848;SDS011;18414;59.352;18.152;2023-02-01T04:07:49;3.30;;;1.80;;
31848;SDS011;18414;59.352;18.152;2023-02-01T04:10:14;3.73;;;1.67;;
31848;SDS011;18414;59.352;18.152;2023-02-01T04:12:40;5.77;;;1.57;;
31848;SDS011;18414;59.352;18.152;2023-02-01T04:15:06;5.43;;;1.80;;
31848;SDS011;18414;59.352;18.152;2023-02-01T04:17:32;7.30;;;1.97;;
31848;SDS011;18414;59.352;18.152;2023-02-01T04:19:57;3.53;;;1.73;;
31848;SDS011;18414;59.352;18.152;2023-02-01T04:22:23;3.77;;;1.60;;
31848;SDS011;18414;59.352;18.152;2023-02-01T04:24:48;4.77;;;1.50;;
31848;SDS011;18414;59.352;18.152;2023-02-01T04:27:13;5.40;;;1.97;;
31848;SDS011;18414;59.352;18.152;2023-02-01T04:29:39;4.37;;;1.90;;
31848;SDS011;18414;59.352;18.152;2023-02-01T04:32:05;4.77;;;1.67;;
31848;SDS011;18414;59.352;18.152;2023-02-01T04:34:30;3.80;;;1.90;;
31848;SDS011;18414;59.352;18.152;2023-02-01T04:36:56;4.97;;;2.03;;
31848;SDS011;18414;59.352;18.152;2023-02-01T04:39:21;4.60;;;2.03;;
31848;SDS011;18414;59.352;18.152;2023-02-01T04:41:46;2.87;;;1.67;;
31848;SDS011;18414;59.352;18.152;2023-02-01T04:44:15;3.37;;;1.50;;
31848;SDS011;18414;59.352;18.152;2023-02-01T04:46:42;5.07;;;1.60;;
31848;SDS011;18414;59.352;18.152;2023-02-01T04:49:08;3.00;;;1.57;;
31848;SDS011;18414;59.352;18.152;2023-02-01T04:51:34;4.37;;;1.67;;
31848;SDS011;18414;59.352;18.152;2023-02-01T04:54:00;2.77;;;1.70;;
31848;SDS011;18414;59.352;18.152;2023-02-01T04:56:25;4.87;;;1.93;;
31848;SDS011;18414;59.352;18.152;2023-02-01T04:58:50;5.87;;;1.77;;
31848;SDS011;18414;59.352;18.152;2023-02-01T05:01:16;9.03;;;1.60;;
31848;SDS011;18414;59.352;18.152;2023-02-01T05:03:41;5.13;;;1.57;;
31848;SDS011;18414;59.352;18.152;2023-02-01T05:06:06;3.27;;;1.70;;
31848;SDS011;18414;59.352;18.152;2023-02-01T05:08:32;4.37;;;1.97;;
31848;SDS011;18414;59.352;18.152;2023-02-01T05:10:57;5.97;;;2.03;;
31848;SDS011;18414;59.352;18.152;2023-02-01T05:13:24;6.10;;;1.90;;
31848;SDS011;18414;59.352;18.152;2023-02-01T05:16:08;7.40;;;2.10;;
31848;SDS011;18414;59.352;18.152;2023-02-01T05:18:33;3.53;;;2.07;;
31848;SDS011;18414;59.352;18.152;2023-02-01T05:20:59;11.93;;;2.90;;
31848;SDS011;18414;59.352;18.152;2023-02-01T05:23:24;3.43;;;2.10;;
31848;SDS011;18414;59.352;18.152;2023-02-01T05:25:49;5.33;;;2.43;;
31848;SDS011;18414;59.352;18.152;2023-02-01T05:28:15;10.10;;;2.90;;
31848;SDS011;18414;59.352;18.152;2023-02-01T05:30:40;4.27;;;2.10;;
31848;SDS011;18414;59.352;18.152;2023-02-01T05:33:05;6.67;;;2.20;;
31848;SDS011;18414;59.352;18.152;2023-02-01T05:35:31;5.90;;;2.10;;
31848;SDS011;18414;59.352;18.152;2023-02-01T05:37:56;6.47;;;2.37;;
31848;SDS011;18414;59.352;18.152;2023-02-01T05:40:21;11.30;;;2.30;;
31848;SDS011;18414;59.352;18.152;2023-02-01T05:42:47;6.67;;;2.57;;
31848;SDS011;18414;59.352;18.152;2023-02-01T05:45:12;13.90;;;2.70;;
31848;SDS011;18414;59.352;18.152;2023-02-01T05:47:38;5.97;;;2.13;;
31848;SDS011;18414;59.352;18.152;2023-02-01T05:50:03;7.63;;;2.20;;
31848;SDS011;18414;59.352;18.152;2023-02-01T05:52:29;8.50;;;2.50;;
31848;SDS011;18414;59.352;18.152;2023-02-01T05:54:55;5.77;;;2.37;;
31848;SDS011;18414;59.352;18.152;2023-02-01T05:57:20;7.33;;;2.20;;
31848;SDS011;18414;59.352;18.152;2023-02-01T05:59:45;7.17;;;2.50;;
31848;SDS011;18414;59.352;18.152;2023-02-01T06:02:12;8.00;;;2.90;;
31848;SDS011;18414;59.352;18.152;2023-02-01T06:04:37;5.77;;;2.40;;
31848;SDS011;18414;59.352;18.152;2023-02-01T06:07:04;10.43;;;2.50;;
31848;SDS011;18414;59.352;18.152;2023-02-01T06:09:30;6.50;;;2.50;;
31848;SDS011;18414;59.352;18.152;2023-02-01T06:11:55;9.07;;;2.83;;
31848;SDS011;18414;59.352;18.152;2023-02-01T06:14:21;6.00;;;2.57;;
31848;SDS011;18414;59.352;18.152;2023-02-01T06:16:46;4.63;;;2.20;;
31848;SDS011;18414;59.352;18.152;2023-02-01T06:19:12;6.37;;;2.70;;
31848;SDS011;18414;59.352;18.152;2023-02-01T06:21:38;4.50;;;2.23;;
31848;SDS011;18414;59.352;18.152;2023-02-01T06:24:03;8.07;;;2.23;;
31848;SDS011;18414;59.352;18.152;2023-02-01T06:26:29;7.03;;;2.70;;
31848;SDS011;18414;59.352;18.152;2023-02-01T06:28:55;10.33;;;2.63;;
31848;SDS011;18414;59.352;18.152;2023-02-01T06:31:21;8.30;;;2.47;;
31848;SDS011;18414;59.352;18.152;2023-02-01T06:33:46;7.50;;;3.00;;
31848;SDS011;18414;59.352;18.152;2023-02-01T06:36:12;7.40;;;2.90;;
31848;SDS011;18414;59.352;18.152;2023-02-01T06:38:40;5.60;;;2.53;;
31848;SDS011;18414;59.352;18.152;2023-02-01T06:41:06;8.10;;;2.87;;
31848;SDS011;18414;59.352;18.152;2023-02-01T06:43:31;6.10;;;3.23;;
31848;SDS011;18414;59.352;18.152;2023-02-01T06:46:01;6.57;;;3.00;;
31848;SDS011;18414;59.352;18.152;2023-02-01T06:48:29;3.87;;;2.63;;
31848;SDS011;18414;59.352;18.152;2023-02-01T06:50:55;6.20;;;2.90;;
31848;SDS011;18414;59.352;18.152;2023-02-01T06:53:20;6.27;;;2.67;;
31848;SDS011;18414;59.352;18.152;2023-02-01T06:55:52;5.27;;;2.83;;
31848;SDS011;18414;59.352;18.152;2023-02-01T06:58:28;13.40;;;3.37;;
31848;SDS011;18414;59.352;18.152;2023-02-01T07:00:54;7.80;;;2.60;;
31848;SDS011;18414;59.352;18.152;2023-02-01T07:03:19;6.00;;;2.50;;
31848;SDS011;18414;59.352;18.152;2023-02-01T07:05:44;8.47;;;2.90;;
31848;SDS011;18414;59.352;18.152;2023-02-01T07:08:10;7.40;;;2.93;;
31848;SDS011;18414;59.352;18.152;2023-02-01T07:10:36;6.43;;;3.10;;
31848;SDS011;18414;59.352;18.152;2023-02-01T07:13:02;9.67;;;2.73;;
31848;SDS011;18414;59.352;18.152;2023-02-01T07:15:27;9.70;;;2.73;;
31848;SDS011;18414;59.352;18.152;2023-02-01T07:17:56;8.27;;;2.50;;
31848;SDS011;18414;59.352;18.152;2023-02-01T07:20:22;4.70;;;2.47;;
31848;SDS011;18414;59.352;18.152;2023-02-01T07:22:47;10.17;;;2.87;;
31848;SDS011;18414;59.352;18.152;2023-02-01T07:25:13;8.03;;;2.60;;
31848;SDS011;18414;59.352;18.152;2023-02-01T07:27:38;6.10;;;2.50;;
31848;SDS011;18414;59.352;18.152;2023-02-01T07:30:04;8.87;;;2.33;;
31848;SDS011;18414;59.352;18.152;2023-02-01T07:32:30;6.17;;;2.50;;
31848;SDS011;18414;59.352;18.152;2023-02-01T07:34:56;6.57;;;2.50;;
31848;SDS011;18414;59.352;18.152;2023-02-01T07:37:22;6.30;;;2.80;;
31848;SDS011;18414;59.352;18.152;2023-02-01T07:39:49;8.70;;;2.83;;
31848;SDS011;18414;59.352;18.152;2023-02-01T07:42:15;7.13;;;2.80;;
31848;SDS011;18414;59.352;18.152;2023-02-01T07:44:40;4.20;;;2.20;;
31848;SDS011;18414;59.352;18.152;2023-02-01T07:47:05;7.87;;;2.53;;
31848;SDS011;18414;59.352;18.152;2023-02-01T07:49:31;7.33;;;3.13;;
31848;SDS011;18414;59.352;18.152;2023-02-01T07:51:56;4.80;;;2.40;;
31848;SDS011;18414;59.352;18.152;2023-02-01T07:54:21;10.43;;;2.70;;
31848;SDS011;18414;59.352;18.152;2023-02-01T07:56:47;5.23;;;2.43;;
31848;SDS011;18414;59.352;18.152;2023-02-01T07:59:12;9.17;;;2.90;;
31848;SDS011;18414;59.352;18.152;2023-02-01T08:01:37;6.80;;;2.90;;
31848;SDS011;18414;59.352;18.152;2023-02-01T08:04:03;9.27;;;2.77;;
31848;SDS011;18414;59.352;18.152;2023-02-01T08:06:29;10.67;;;2.73;;
31848;SDS011;18414;59.352;18.152;2023-02-01T08:08:56;7.93;;;2.60;;
31848;SDS011;18414;59.352;18.152;2023-02-01T08:11:22;5.47;;;2.50;;
31848;SDS011;18414;59.352;18.152;2023-02-01T08:13:48;7.30;;;2.90;;
31848;SDS011;18414;59.352;18.152;2023-02-01T08:16:15;10.20;;;2.37;;
31848;SDS011;18414;59.352;18.152;2023-02-01T08:18:41;8.73;;;2.80;;
31848;SDS011;18414;59.352;18.152;2023-02-01T08:21:07;4.73;;;2.50;;
31848;SDS011;18414;59.352;18.152;2023-02-01T08:23:34;7.33;;;2.90;;
31848;SDS011;18414;59.352;18.152;2023-02-01T08:26:19;10.30;;;2.60;;
31848;SDS011;18414;59.352;18.152;2023-02-01T08:28:48;11.70;;;3.17;;
31848;SDS011;18414;59.352;18.152;2023-02-01T08:31:16;6.83;;;3.40;;
31848;SDS011;18414;59.352;18.152;2023-02-01T08:33:44;6.97;;;2.70;;
31848;SDS011;18414;59.352;18.152;2023-02-01T08:36:13;5.80;;;2.40;;
31848;SDS011;18414;59.352;18.152;2023-02-01T08:38:39;12.60;;;2.83;;
31848;SDS011;18414;59.352;18.152;2023-02-01T08:41:08;12.27;;;3.80;;
31848;SDS011;18414;59.352;18.152;2023-02-01T08:43:38;6.97;;;2.30;;
31848;SDS011;18414;59.352;18.152;2023-02-01T08:46:04;9.17;;;2.60;;
31848;SDS011;18414;59.352;18.152;2023-02-01T08:48:29;10.07;;;2.87;;
31848;SDS011;18414;59.352;18.152;2023-02-01T08:50:55;8.17;;;2.80;;
31848;SDS011;18414;59.352;18.152;2023-02-01T08:53:20;7.63;;;2.63;;
31848;SDS011;18414;59.352;18.152;2023-02-01T08:55:46;7.17;;;2.30;;
31848;SDS011;18414;59.352;18.152;2023-02-01T08:58:12;6.53;;;2.60;;
31848;SDS011;18414;59.352;18.152;2023-02-01T09:00:39;7.30;;;2.77;;
31848;SDS011;18414;59.352;18.152;2023-02-01T09:03:05;9.60;;;2.80;;
31848;SDS011;18414;59.352;18.152;2023-02-01T09:05:30;7.87;;;2.50;;
31848;SDS011;18414;59.352;18.152;2023-02-01T09:07:56;9.63;;;2.40;;
31848;SDS011;18414;59.352;18.152;2023-02-01T09:10:21;7.23;;;2.50;;
31848;SDS011;18414;59.352;18.152;2023-02-01T09:12:47;7.97;;;2.60;;
31848;SDS011;18414;59.352;18.152;2023-02-01T09:15:12;5.30;;;2.33;;
31848;SDS011;18414;59.352;18.152;2023-02-01T09:17:38;7.37;;;2.53;;
31848;SDS011;18414;59.352;18.152;2023-02-01T09:20:03;6.57;;;2.63;;
31848;SDS011;18414;59.352;18.152;2023-02-01T09:22:29;6.53;;;2.60;;
31848;SDS011;18414;59.352;18.152;2023-02-01T09:24:54;9.57;;;2.80;;
31848;SDS011;18414;59.352;18.152;2023-02-01T09:27:20;5.60;;;2.20;;
31848;SDS011;18414;59.352;18.152;2023-02-01T09:29:45;11.43;;;2.87;;
31848;SDS011;18414;59.352;18.152;2023-02-01T09:32:14;6.73;;;2.17;;
31848;SDS011;18414;59.352;18.152;2023-02-01T09:34:40;7.03;;;2.67;;
31848;SDS011;18414;59.352;18.152;2023-02-01T09:37:05;7.13;;;2.80;;
31848;SDS011;18414;59.352;18.152;2023-02-01T09:39:30;10.90;;;2.87;;
31848;SDS011;18414;59.352;18.152;2023-02-01T09:44:55;11.00;;;2.37;;
31848;SDS011;18414;59.352;18.152;2023-02-01T09:47:30;5.67;;;2.67;;
31848;SDS011;18414;59.352;18.152;2023-02-01T09:50:02;8.13;;;2.50;;
31848;SDS011;18414;59.352;18.152;2023-02-01T09:52:31;12.40;;;3.17;;
31848;SDS011;18414;59.352;18.152;2023-02-01T09:55:09;9.63;;;2.70;;
31848;SDS011;18414;59.352;18.152;2023-02-01T09:58:06;7.93;;;2.53;;
31848;SDS011;18414;59.352;18.152;2023-02-01T10:00:38;12.50;;;2.40;;
31848;SDS011;18414;59.352;18.152;2023-02-01T10:03:05;6.30;;;2.90;;
31848;SDS011;18414;59.352;18.152;2023-02-01T10:09:14;4.80;;;2.67;;
31848;SDS011;18414;59.352;18.152;2023-02-01T10:14:32;6.97;;;2.50;;
31848;SDS011;18414;59.352;18.152;2023-02-01T10:28:02;7.37;;;2.47;;
31848;SDS011;18414;59.352;18.152;2023-02-01T10:30:39;4.43;;;2.40;;
31848;SDS011;18414;59.352;18.152;2023-02-01T10:36:29;7.63;;;3.10;;
31848;SDS011;18414;59.352;18.152;2023-02-01T10:39:00;5.47;;;2.43;;
31848;SDS011;18414;59.352;18.152;2023-02-01T10:41:35;7.07;;;2.30;;
31848;SDS011;18414;59.352;18.152;2023-02-01T10:44:03;6.73;;;2.40;;
31848;SDS011;18414;59.352;18.152;2023-02-01T10:46:31;5.47;;;2.00;;
31848;SDS011;18414;59.352;18.152;2023-02-01T10:48:58;4.07;;;1.97;;
31848;SDS011;18414;59.352;18.152;2023-02-01T10:51:30;7.27;;;1.87;;
31848;SDS011;18414;59.352;18.152;2023-02-01T10:54:03;5.80;;;2.13;;
31848;SDS011;18414;59.352;18.152;2023-02-01T10:56:30;4.77;;;2.40;;
31848;SDS011;18414;59.352;18.152;2023-02-01T10:59:00;8.17;;;2.50;;
31848;SDS011;18414;59.352;18.152;2023-02-01T11:01:40;4.60;;;2.30;;
31848;SDS011;18414;59.352;18.152;2023-02-01T11:04:09;8.67;;;2.77;;
31848;SDS011;18414;59.352;18.152;2023-02-01T11:06:42;4.73;;;2.03;;
31848;SDS011;18414;59.352;18.152;2023-02-01T11:14:16;5.53;;;2.10;;
31848;SDS011;18414;59.352;18.152;2023-02-01T11:16:47;6.30;;;2.47;;
31848;SDS011;18414;59.352;18.152;2023-02-01T11:19:15;5.47;;;2.30;;
31848;SDS011;18414;59.352;18.152;2023-02-01T11:21:41;3.27;;;1.93;;
31848;SDS011;18414;59.352;18.152;2023-02-01T11:24:11;4.90;;;2.23;;
31848;SDS011;18414;59.352;18.152;2023-02-01T11:26:46;4.43;;;1.70;;
31848;SDS011;18414;59.352;18.152;2023-02-01T11:29:13;5.37;;;2.10;;
31848;SDS011;18414;59.352;18.152;2023-02-01T11:31:42;5.40;;;1.77;;
31848;SDS011;18414;59.352;18.152;2023-02-01T11:34:14;5.80;;;1.93;;
31848;SDS011;18414;59.352;18.152;2023-02-01T11:36:41;5.43;;;2.20;;
31848;SDS011;18414;59.352;18.152;2023-02-01T11:39:09;4.57;;;1.83;;
31848;SDS011;18414;59.352;18.152;2023-02-01T11:41:43;3.37;;;1.70;;
31848;SDS011;18414;59.352;18.152;2023-02-01T11:44:32;3.77;;;1.80;;
31848;SDS011;18414;59.352;18.152;2023-02-01T11:47:18;3.37;;;1.83;;
31848;SDS011;18414;59.352;18.152;2023-02-01T11:50:33;5.00;;;2.20;;
31848;SDS011;18414;59.352;18.152;2023-02-01T11:53:03;4.57;;;2.23;;
31848;SDS011;18414;59.352;18.152;2023-02-01T12:06:51;7.43;;;3.53;;
31848;SDS011;18414;59.352;18.152;2023-02-01T12:17:18;6.63;;;3.20;;
31848;SDS011;18414;59.352;18.152;2023-02-01T12:36:05;5.20;;;1.87;;
31848;SDS011;18414;59.352;18.152;2023-02-01T12:38:52;2.60;;;1.30;;
31848;SDS011;18414;59.352;18.152;2023-02-01T12:41:34;4.90;;;1.80;;
31848;SDS011;18414;59.352;18.152;2023-02-01T12:44:17;2.73;;;1.37;;
31848;SDS011;18414;59.352;18.152;2023-02-01T12:46:53;5.50;;;1.80;;
31848;SDS011;18414;59.352;18.152;2023-02-01T12:52:30;2.43;;;1.33;;
31848;SDS011;18414;59.352;18.152;2023-02-01T12:55:15;3.77;;;1.40;;
31848;SDS011;18414;59.352;18.152;2023-02-01T12:57:49;4.27;;;1.67;;
31848;SDS011;18414;59.352;18.152;2023-02-01T13:02:56;3.30;;;1.53;;
31848;SDS011;18414;59.352;18.152;2023-02-01T13:05:28;4.00;;;1.60;;
31848;SDS011;18414;59.352;18.152;2023-02-01T13:08:11;5.10;;;1.83;;
31848;SDS011;18414;59.352;18.152;2023-02-01T13:13:30;4.13;;;2.00;;
31848;SDS011;18414;59.352;18.152;2023-02-01T13:21:59;6.90;;;1.90;;
31848;SDS011;18414;59.352;18.152;2023-02-01T13:24:33;4.23;;;1.87;;
31848;SDS011;18414;59.352;18.152;2023-02-01T13:27:02;4.27;;;2.20;;
31848;SDS011;18414;59.352;18.152;2023-02-01T13:29:28;7.17;;;2.23;;
31848;SDS011;18414;59.352;18.152;2023-02-01T13:42:55;4.80;;;1.80;;
31848;SDS011;18414;59.352;18.152;2023-02-01T13:45:30;4.80;;;2.20;;
31848;SDS011;18414;59.352;18.152;2023-02-01T13:47:59;4.07;;;2.00;;
31848;SDS011;18414;59.352;18.152;2023-02-01T13:50:30;6.37;;;2.50;;
31848;SDS011;18414;59.352;18.152;2023-02-01T13:55:40;6.43;;;2.23;;
31848;SDS011;18414;59.352;18.152;2023-02-01T13:58:15;7.97;;;1.77;;
31848;SDS011;18414;59.352;18.152;2023-02-01T14:00:41;3.20;;;1.40;;
31848;SDS011;18414;59.352;18.152;2023-02-01T14:21:13;1.90;;;1.20;;
31848;SDS011;18414;59.352;18.152;2023-02-01T14:23:54;7.23;;;1.30;;
31848;SDS011;18414;59.352;18.152;2023-02-01T14:26:26;4.77;;;1.70;;
31848;SDS011;18414;59.352;18.152;2023-02-01T14:31:44;4.10;;;1.80;;
31848;SDS011;18414;59.352;18.152;2023-02-01T14:34:58;3.33;;;1.53;;
31848;SDS011;18414;59.352;18.152;2023-02-01T14:37:02;4.70;;;1.50;;
31848;SDS011;18414;59.352;18.152;2023-02-01T14:39:30;3.17;;;1.50;;
31848;SDS011;18414;59.352;18.152;2023-02-01T14:42:03;2.10;;;1.20;;
31848;SDS011;18414;59.352;18.152;2023-02-01T14:44:31;1.63;;;1.00;;
31848;SDS011;18414;59.352;18.152;2023-02-01T14:52:34;3.07;;;1.30;;
31848;SDS011;18414;59.352;18.152;2023-02-01T14:55:04;5.60;;;1.10;;
31848;SDS011;18414;59.352;18.152;2023-02-01T14:57:31;4.90;;;1.33;;
31848;SDS011;18414;59.352;18.152;2023-02-01T15:00:05;2.90;;;1.13;;
31848;SDS011;18414;59.352;18.152;2023-02-01T15:02:33;1.27;;;1.00;;
31848;SDS011;18414;59.352;18.152;2023-02-01T15:05:00;2.50;;;1.23;;
31848;SDS011;18414;59.352;18.152;2023-02-01T15:07:25;2.33;;;1.30;;
31848;SDS011;18414;59.352;18.152;2023-02-01T15:09:53;1.23;;;0.90;;
31848;SDS011;18414;59.352;18.152;2023-02-01T15:12:24;1.40;;;0.90;;
31848;SDS011;18414;59.352;18.152;2023-02-01T15:17:52;3.10;;;1.07;;
31848;SDS011;18414;59.352;18.152;2023-02-01T15:20:23;2.97;;;1.13;;
31848;SDS011;18414;59.352;18.152;2023-02-01T15:22:54;4.00;;;1.00;;
31848;SDS011;18414;59.352;18.152;2023-02-01T15:25:25;1.20;;;0.80;;
31848;SDS011;18414;59.352;18.152;2023-02-01T15:27:52;3.07;;;1.20;;
31848;SDS011;18414;59.352;18.152;2023-02-01T15:30:20;1.77;;;0.90;;
31848;SDS011;18414;59.352;18.152;2023-02-01T15:32:46;1.17;;;0.90;;
31848;SDS011;18414;59.352;18.152;2023-02-01T15:46:22;2.60;;;1.30;;
31848;SDS011;18414;59.352;18.152;2023-02-01T15:49:01;2.20;;;1.07;;
31848;SDS011;18414;59.352;18.152;2023-02-01T15:51:27;2.03;;;1.23;;
31848;SDS011;18414;59.352;18.152;2023-02-01T15:53:55;2.47;;;1.03;;
31848;SDS011;18414;59.352;18.152;2023-02-01T15:56:32;1.40;;;1.00;;
31848;SDS011;18414;59.352;18.152;2023-02-01T15:59:00;1.10;;;0.90;;
31848;SDS011;18414;59.352;18.152;2023-02-01T16:01:27;1.60;;;0.90;;
31848;SDS011;18414;59.352;18.152;2023-02-01T16:06:49;4.60;;;1.40;;
31848;SDS011;18414;59.352;18.152;2023-02-01T16:09:20;6.53;;;1.40;;
31848;SDS011;18414;59.352;18.152;2023-02-01T16:11:59;2.33;;;1.30;;
31848;SDS011;18414;59.352;18.152;2023-02-01T16:14:25;4.40;;;1.30;;
31848;SDS011;18414;59.352;18.152;2023-02-01T16:16:51;2.30;;;1.17;;
31848;SDS011;18414;59.352;18.152;2023-02-01T16:19:18;2.53;;;1.07;;
31848;SDS011;18414;59.352;18.152;2023-02-01T16:21:44;3.83;;;1.00;;
31848;SDS011;18414;59.352;18.152;2023-02-01T16:24:10;3.47;;;1.03;;
31848;SDS011;18414;59.352;18.152;2023-02-01T16:26:35;2.23;;;1.37;;
31848;SDS011;18414;59.352;18.152;2023-02-01T16:29:02;1.97;;;1.27;;
31848;SDS011;18414;59.352;18.152;2023-02-01T16:31:31;11.40;;;1.37;;
31848;SDS011;18414;59.352;18.152;2023-02-01T16:33:59;3.03;;;1.23;;
31848;SDS011;18414;59.352;18.152;2023-02-01T16:36:24;2.20;;;1.13;;
31848;SDS011;18414;59.352;18.152;2023-02-01T16:38:50;2.47;;;1.30;;
31848;SDS011;18414;59.352;18.152;2023-02-01T16:41:18;2.20;;;1.40;;
31848;SDS011;18414;59.352;18.152;2023-02-01T16:43:44;1.60;;;1.20;;
31848;SDS011;18414;59.352;18.152;2023-02-01T16:46:20;4.43;;;1.73;;
31848;SDS011;18414;59.352;18.152;2023-02-01T16:48:57;3.57;;;1.40;;
31848;SDS011;18414;59.352;18.152;2023-02-01T16:51:28;3.20;;;1.50;;
31848;SDS011;18414;59.352;18.152;2023-02-01T16:53:56;5.03;;;1.60;;
31848;SDS011;18414;59.352;18.152;2023-02-01T16:56:23;1.73;;;1.23;;
31848;SDS011;18414;59.352;18.152;2023-02-01T16:58:53;2.87;;;1.40;;
31848;SDS011;18414;59.352;18.152;2023-02-01T17:01:19;1.73;;;1.20;;
31848;SDS011;18414;59.352;18.152;2023-02-01T17:03:44;4.77;;;1.60;;
31848;SDS011;18414;59.352;18.152;2023-02-01T17:06:12;2.13;;;1.50;;
31848;SDS011;18414;59.352;18.152;2023-02-01T17:08:43;3.33;;;1.60;;
31848;SDS011;18414;59.352;18.152;2023-02-01T17:11:10;3.07;;;1.50;;
31848;SDS011;18414;59.352;18.152;2023-02-01T17:13:37;2.07;;;1.67;;
31848;SDS011;18414;59.352;18.152;2023-02-01T17:16:15;5.57;;;2.00;;
31848;SDS011;18414;59.352;18.152;2023-02-01T17:18:44;4.27;;;1.70;;
31848;SDS011;18414;59.352;18.152;2023-02-01T17:21:12;5.37;;;2.00;;
31848;SDS011;18414;59.352;18.152;2023-02-01T17:23:38;3.13;;;1.53;;
31848;SDS011;18414;59.352;18.152;2023-02-01T17:26:03;2.53;;;1.60;;
31848;SDS011;18414;59.352;18.152;2023-02-01T17:28:29;3.97;;;1.60;;